createdAt,value
2018-03-04T00:00:40.159Z,89.70
2018-03-04T00:01:45.211Z,89.80
2018-03-04T00:02:49.521Z,90.20
2018-03-04T00:03:53.718Z,89.80
2018-03-04T00:04:58.674Z,90.00
2018-03-04T00:06:02.869Z,90.00
2018-03-04T00:07:07.079Z,90.00
2018-03-04T00:08:11.334Z,90.00
2018-03-04T00:09:15.590Z,89.90
2018-03-04T00:10:20.551Z,90.00
2018-03-04T00:11:24.756Z,90.00
2018-03-04T00:12:28.959Z,90.00
2018-03-04T00:13:33.209Z,90.00
2018-03-04T00:14:37.396Z,90.00
2018-03-04T00:15:41.637Z,90.00
2018-03-04T00:16:45.861Z,90.10
2018-03-04T00:17:50.047Z,90.20
2018-03-04T00:18:54.298Z,90.10
2018-03-04T00:19:59.256Z,90.20
2018-03-04T00:21:03.463Z,90.20
2018-03-04T00:22:07.660Z,90.20
2018-03-04T00:23:11.860Z,90.20
2018-03-04T00:24:16.114Z,90.10
2018-03-04T00:25:20.329Z,90.10
2018-03-04T00:26:24.516Z,90.20
2018-03-04T00:27:28.728Z,90.30
2018-03-04T00:28:32.939Z,90.30
2018-03-04T00:29:37.187Z,90.40
2018-03-04T00:30:41.387Z,90.50
2018-03-04T00:31:45.573Z,90.50
2018-03-04T00:32:49.771Z,90.40
2018-03-04T00:33:53.967Z,90.40
2018-03-04T00:34:58.980Z,90.40
2018-03-04T00:36:03.194Z,90.40
2018-03-04T00:37:08.183Z,90.30
2018-03-04T00:38:12.381Z,90.30
2018-03-04T00:39:16.587Z,90.30
2018-03-04T00:40:21.152Z,90.30
2018-03-04T00:41:25.352Z,90.30
2018-03-04T00:42:30.334Z,90.50
2018-03-04T00:43:34.519Z,90.40
2018-03-04T00:44:39.499Z,90.40
2018-03-04T00:45:43.870Z,90.40
2018-03-04T00:46:48.064Z,90.40
2018-03-04T00:47:53.037Z,90.30
2018-03-04T00:48:57.219Z,90.30
2018-03-04T00:50:01.465Z,90.40
2018-03-04T00:51:05.713Z,90.60
2018-03-04T00:52:10.701Z,90.50
2018-03-04T00:53:14.922Z,90.50
2018-03-04T00:54:19.111Z,90.50
2018-03-04T00:55:23.340Z,90.50
2018-03-04T00:56:27.567Z,90.50
2018-03-04T00:57:31.765Z,90.50
2018-03-04T00:58:35.982Z,90.60
2018-03-04T00:59:40.175Z,90.60
2018-03-04T01:00:44.396Z,90.60
2018-03-04T01:01:48.728Z,90.60
2018-03-04T01:02:52.919Z,90.70
2018-03-04T01:03:57.130Z,90.70
2018-03-04T01:05:01.318Z,90.70
2018-03-04T01:06:05.538Z,90.60
2018-03-04T01:07:09.773Z,90.50
2018-03-04T01:08:13.987Z,90.50
2018-03-04T01:09:18.179Z,90.50
2018-03-04T01:10:22.416Z,90.60
2018-03-04T01:11:26.617Z,90.70
2018-03-04T01:12:30.830Z,90.60
2018-03-04T01:13:35.054Z,90.60
2018-03-04T01:14:39.258Z,90.60
2018-03-04T01:15:43.499Z,90.60
2018-03-04T01:16:48.509Z,90.70
2018-03-04T01:17:52.701Z,90.60
2018-03-04T01:18:56.901Z,90.70
2018-03-04T01:20:01.110Z,90.70
2018-03-04T01:21:05.315Z,90.70
2018-03-04T01:22:09.543Z,90.70
2018-03-04T01:23:13.816Z,90.70
2018-03-04T01:24:17.999Z,90.60
2018-03-04T01:25:22.951Z,90.70
2018-03-04T01:26:27.127Z,90.60
2018-03-04T01:27:31.321Z,90.60
2018-03-04T01:28:35.587Z,90.60
2018-03-04T01:29:39.796Z,90.70
2018-03-04T01:30:44.019Z,90.70
2018-03-04T01:31:48.233Z,90.80
2018-03-04T01:32:52.438Z,90.90
2018-03-04T01:33:56.722Z,90.80
2018-03-04T01:35:01.675Z,90.80
2018-03-04T01:36:05.875Z,90.80
2018-03-04T01:37:10.095Z,90.80
2018-03-04T01:38:14.303Z,90.70
2018-03-04T01:39:18.574Z,90.90
2018-03-04T01:40:22.764Z,90.80
2018-03-04T01:41:26.979Z,91.00
2018-03-04T01:42:31.199Z,90.60
2018-03-04T01:43:35.402Z,90.70
2018-03-04T01:44:39.647Z,90.60
2018-03-04T01:45:43.893Z,90.70
2018-03-04T01:46:48.105Z,90.60
2018-03-04T01:47:52.315Z,90.60
2018-03-04T01:48:56.514Z,90.60
2018-03-04T01:50:00.765Z,90.70
2018-03-04T01:51:04.956Z,90.80
2018-03-04T01:52:09.131Z,90.80
2018-03-04T01:53:13.392Z,90.80
2018-03-04T01:54:17.575Z,90.80
2018-03-04T01:55:21.834Z,90.80
2018-03-04T01:56:26.020Z,90.80
2018-03-04T01:57:30.230Z,90.70
2018-03-04T01:58:34.436Z,90.80
2018-03-04T01:59:38.615Z,90.70
2018-03-04T02:00:42.903Z,90.70
2018-03-04T02:01:47.892Z,90.60
2018-03-04T02:02:52.082Z,90.50
2018-03-04T02:03:56.282Z,90.70
2018-03-04T02:05:00.505Z,90.60
2018-03-04T02:06:04.760Z,90.60
2018-03-04T02:07:08.979Z,90.60
2018-03-04T02:08:13.955Z,90.60
2018-03-04T02:09:18.153Z,90.60
2018-03-04T02:10:22.339Z,90.50
2018-03-04T02:11:27.358Z,90.40
2018-03-04T02:12:32.331Z,90.30
2018-03-04T02:13:36.521Z,90.30
2018-03-04T02:14:40.707Z,90.40
2018-03-04T02:15:44.915Z,90.40
2018-03-04T02:16:49.170Z,90.40
2018-03-04T02:17:53.379Z,90.60
2018-03-04T02:18:57.560Z,90.60
2018-03-04T02:20:02.531Z,90.70
2018-03-04T02:21:06.720Z,90.70
2018-03-04T02:22:10.980Z,90.70
2018-03-04T02:23:15.999Z,90.70
2018-03-04T02:24:20.202Z,90.70
2018-03-04T02:25:24.392Z,90.80
2018-03-04T02:26:28.589Z,90.90
2018-03-04T02:27:32.852Z,90.90
2018-03-04T02:28:37.055Z,90.70
2018-03-04T02:29:41.232Z,90.70
2018-03-04T02:30:45.456Z,90.70
2018-03-04T02:31:49.688Z,90.70
2018-03-04T02:32:53.905Z,90.60
2018-03-04T02:33:58.096Z,90.40
2018-03-04T02:35:02.327Z,90.40
2018-03-04T02:36:06.528Z,90.50
2018-03-04T02:37:10.731Z,90.40
2018-03-04T02:38:14.987Z,90.40
2018-03-04T02:39:19.213Z,90.40
2018-03-04T02:40:23.426Z,90.30
2018-03-04T02:41:27.630Z,90.40
2018-03-04T02:42:31.870Z,90.40
2018-03-04T02:43:36.074Z,90.30
2018-03-04T02:44:40.270Z,90.30
2018-03-04T02:45:45.239Z,90.70
2018-03-04T02:46:49.512Z,90.40
2018-03-04T02:47:53.759Z,90.40
2018-03-04T02:48:57.967Z,90.50
2018-03-04T02:50:02.228Z,90.50
2018-03-04T02:51:07.208Z,90.30
2018-03-04T02:52:11.463Z,90.30
2018-03-04T02:53:16.500Z,90.30
2018-03-04T02:54:21.457Z,90.40
2018-03-04T02:55:25.658Z,90.30
2018-03-04T02:56:29.831Z,90.40
2018-03-04T02:57:34.040Z,90.50
2018-03-04T02:58:38.271Z,90.30
2018-03-04T02:59:42.515Z,90.50
2018-03-04T03:00:46.891Z,90.40
2018-03-04T03:01:51.868Z,90.40
2018-03-04T03:02:56.065Z,90.40
2018-03-04T03:04:00.324Z,90.40
2018-03-04T03:05:04.527Z,90.30
2018-03-04T03:06:08.709Z,90.40
2018-03-04T03:07:12.971Z,90.40
2018-03-04T03:08:17.946Z,90.40
2018-03-04T03:09:22.218Z,90.40
2018-03-04T03:10:27.171Z,90.50
2018-03-04T03:11:31.370Z,90.40
2018-03-04T03:12:35.586Z,90.50
2018-03-04T03:13:39.809Z,90.40
2018-03-04T03:14:44.223Z,90.50
2018-03-04T03:15:48.471Z,90.50
2018-03-04T03:16:52.680Z,90.40
2018-03-04T03:17:56.868Z,90.40
2018-03-04T03:19:01.048Z,90.40
2018-03-04T03:20:05.350Z,90.40
2018-03-04T03:21:09.565Z,90.40
2018-03-04T03:22:14.547Z,90.60
2018-03-04T03:23:18.743Z,90.60
2018-03-04T03:24:22.936Z,90.50
2018-03-04T03:25:27.166Z,90.60
2018-03-04T03:26:31.361Z,90.70
2018-03-04T03:27:35.558Z,90.70
2018-03-04T03:28:39.778Z,90.70
2018-03-04T03:29:43.984Z,90.90
2018-03-04T03:30:48.259Z,90.80
2018-03-04T03:31:53.277Z,90.90
2018-03-04T03:32:57.482Z,90.90
2018-03-04T03:34:02.452Z,90.90
2018-03-04T03:35:06.640Z,90.90
2018-03-04T03:36:11.638Z,91.00
2018-03-04T03:37:15.924Z,91.00
2018-03-04T03:38:20.196Z,91.00
2018-03-04T03:39:25.257Z,91.00
2018-03-04T03:40:30.202Z,91.10
2018-03-04T03:41:34.402Z,91.00
2018-03-04T03:42:38.592Z,91.10
2018-03-04T03:43:42.838Z,91.10
2018-03-04T03:44:47.088Z,91.10
2018-03-04T03:45:52.072Z,91.10
2018-03-04T03:46:56.311Z,91.10
2018-03-04T03:48:00.509Z,91.00
2018-03-04T03:49:04.691Z,91.00
2018-03-04T03:50:08.893Z,91.00
2018-03-04T03:51:13.239Z,91.00
2018-03-04T03:52:17.523Z,91.00
2018-03-04T03:53:21.737Z,91.10
2018-03-04T03:54:25.946Z,91.10
2018-03-04T03:55:30.152Z,91.00
2018-03-04T03:56:34.326Z,91.00
2018-03-04T03:57:38.555Z,91.40
2018-03-04T03:58:43.579Z,90.90
2018-03-04T03:59:48.579Z,90.80
2018-03-04T04:00:52.806Z,90.80
2018-03-04T04:01:56.989Z,90.90
2018-03-04T04:03:01.241Z,90.80
2018-03-04T04:04:06.187Z,90.80
2018-03-04T04:05:10.377Z,90.80
2018-03-04T04:06:15.670Z,91.00
2018-03-04T04:07:19.874Z,91.00
2018-03-04T04:08:24.145Z,91.00
2018-03-04T04:09:29.118Z,91.20
2018-03-04T04:10:33.308Z,91.20
2018-03-04T04:11:37.494Z,91.20
2018-03-04T04:12:42.519Z,91.20
2018-03-04T04:13:47.571Z,91.20
2018-03-04T04:14:51.809Z,91.20
2018-03-04T04:15:56.037Z,91.40
2018-03-04T04:17:00.233Z,91.50
2018-03-04T04:18:04.428Z,91.40
2018-03-04T04:19:08.663Z,91.30
2018-03-04T04:20:12.958Z,91.20
2018-03-04T04:21:17.178Z,91.20
2018-03-04T04:22:21.389Z,91.20
2018-03-04T04:23:25.642Z,91.10
2018-03-04T04:24:30.661Z,91.10
2018-03-04T04:25:34.858Z,91.00
2018-03-04T04:26:39.059Z,91.00
2018-03-04T04:27:44.180Z,91.20
2018-03-04T04:28:48.385Z,91.20
2018-03-04T04:29:52.653Z,91.10
2018-03-04T04:30:56.871Z,91.10
2018-03-04T04:32:01.830Z,91.10
2018-03-04T04:33:06.047Z,91.10
2018-03-04T04:34:10.245Z,91.30
2018-03-04T04:35:14.493Z,91.20
2018-03-04T04:36:18.722Z,91.30
2018-03-04T04:37:22.957Z,91.30
2018-03-04T04:38:27.155Z,91.20
2018-03-04T04:39:32.127Z,91.30
2018-03-04T04:40:36.378Z,91.20
2018-03-04T04:41:40.588Z,91.40
2018-03-04T04:42:44.853Z,91.30
2018-03-04T04:43:49.087Z,91.40
2018-03-04T04:44:53.379Z,91.50
2018-03-04T04:45:57.614Z,91.70
2018-03-04T04:47:01.819Z,91.60
2018-03-04T04:48:06.017Z,91.60
2018-03-04T04:49:10.209Z,91.70
2018-03-04T04:50:14.892Z,91.80
2018-03-04T04:51:19.147Z,91.80
2018-03-04T04:52:23.446Z,91.80
2018-03-04T04:53:27.639Z,91.80
2018-03-04T04:54:32.609Z,91.90
2018-03-04T04:55:36.791Z,91.70
2018-03-04T04:56:40.987Z,91.70
2018-03-04T04:57:46.502Z,91.70
2018-03-04T04:58:50.713Z,91.70
2018-03-04T04:59:54.906Z,91.60
2018-03-04T05:00:59.143Z,91.60
2018-03-04T05:02:03.342Z,91.60
2018-03-04T05:03:07.600Z,91.50
2018-03-04T05:04:11.850Z,91.50
2018-03-04T05:05:16.894Z,91.30
2018-03-04T05:06:21.148Z,91.30
2018-03-04T05:07:25.334Z,91.30
2018-03-04T05:08:29.610Z,91.40
2018-03-04T05:09:33.800Z,91.30
2018-03-04T05:10:38.047Z,91.20
2018-03-04T05:11:42.992Z,91.20
2018-03-04T05:12:48.019Z,91.20
2018-03-04T05:13:52.306Z,91.30
2018-03-04T05:14:56.503Z,91.20
2018-03-04T05:16:00.688Z,91.40
2018-03-04T05:17:04.886Z,91.20
2018-03-04T05:18:09.844Z,91.30
2018-03-04T05:19:14.246Z,91.30
2018-03-04T05:20:18.522Z,91.40
2018-03-04T05:21:22.749Z,91.40
2018-03-04T05:22:27.719Z,91.50
2018-03-04T05:23:31.931Z,91.50
2018-03-04T05:24:36.160Z,91.50
2018-03-04T05:25:40.357Z,91.50
2018-03-04T05:26:44.832Z,91.50
2018-03-04T05:27:49.807Z,91.50
2018-03-04T05:28:54.067Z,91.50
2018-03-04T05:29:59.071Z,91.40
2018-03-04T05:31:03.293Z,91.40
2018-03-04T05:32:07.498Z,91.50
2018-03-04T05:33:11.688Z,91.10
2018-03-04T05:34:15.953Z,91.30
2018-03-04T05:35:20.224Z,91.40
2018-03-04T05:36:24.439Z,91.50
2018-03-04T05:37:28.647Z,91.50
2018-03-04T05:38:32.845Z,91.60
2018-03-04T05:39:37.026Z,91.60
2018-03-04T05:40:41.495Z,91.70
2018-03-04T05:41:46.566Z,91.90
2018-03-04T05:42:50.815Z,91.90
2018-03-04T05:43:56.031Z,92.00
2018-03-04T05:45:00.238Z,92.00
2018-03-04T05:46:04.507Z,92.00
2018-03-04T05:47:09.470Z,92.10
2018-03-04T05:48:13.802Z,92.10
2018-03-04T05:49:18.079Z,92.20
2018-03-04T05:50:22.273Z,92.20
2018-03-04T05:51:27.406Z,92.40
2018-03-04T05:52:32.398Z,92.30
2018-03-04T05:53:36.582Z,92.30
2018-03-04T05:54:40.790Z,92.30
2018-03-04T05:55:45.043Z,92.30
2018-03-04T05:56:50.070Z,92.40
2018-03-04T05:57:55.087Z,92.70
2018-03-04T05:58:59.349Z,92.40
2018-03-04T06:00:04.498Z,92.50
2018-03-04T06:01:08.685Z,92.20
2018-03-04T06:02:12.966Z,92.50
2018-03-04T06:03:17.956Z,92.50
2018-03-04T06:04:22.194Z,92.50
2018-03-04T06:05:26.402Z,92.50
2018-03-04T06:06:30.671Z,92.30
2018-03-04T06:07:34.874Z,92.40
2018-03-04T06:08:39.058Z,92.40
2018-03-04T06:09:43.358Z,92.50
2018-03-04T06:10:48.405Z,92.50
2018-03-04T06:11:53.439Z,92.70
2018-03-04T06:12:57.642Z,92.40
2018-03-04T06:14:01.832Z,92.40
2018-03-04T06:15:06.022Z,92.40
2018-03-04T06:16:10.225Z,92.50
2018-03-04T06:17:14.640Z,92.50
2018-03-04T06:18:20.387Z,92.50
2018-03-04T06:19:24.659Z,92.40
2018-03-04T06:20:29.629Z,92.40
2018-03-04T06:21:33.883Z,92.40
2018-03-04T06:22:38.102Z,92.40
2018-03-04T06:23:42.423Z,92.50
2018-03-04T06:24:46.701Z,92.30
2018-03-04T06:25:50.933Z,92.50
2018-03-04T06:26:55.914Z,92.60
2018-03-04T06:28:00.316Z,92.50
2018-03-04T06:29:04.543Z,92.70
2018-03-04T06:30:08.761Z,92.60
2018-03-04T06:31:13.158Z,92.60
2018-03-04T06:32:17.438Z,92.50
2018-03-04T06:33:22.403Z,92.40
2018-03-04T06:34:26.659Z,92.40
2018-03-04T06:35:30.839Z,92.50
2018-03-04T06:36:35.048Z,92.60
2018-03-04T06:37:39.264Z,92.50
2018-03-04T06:38:43.496Z,92.60
2018-03-04T06:39:47.801Z,92.60
2018-03-04T06:40:52.080Z,92.60
2018-03-04T06:41:56.286Z,92.50
2018-03-04T06:43:00.642Z,92.60
2018-03-04T06:44:04.814Z,92.60
2018-03-04T06:45:08.999Z,92.60
2018-03-04T06:46:14.724Z,92.60
2018-03-04T06:47:19.759Z,92.60
2018-03-04T06:48:24.715Z,92.90
2018-03-04T06:49:28.942Z,92.50
2018-03-04T06:50:33.118Z,92.60
2018-03-04T06:51:38.134Z,92.60
2018-03-04T06:52:42.595Z,92.50
2018-03-04T06:53:47.297Z,92.20
2018-03-04T06:54:52.343Z,92.50
2018-03-04T06:55:56.563Z,92.50
2018-03-04T06:57:00.830Z,92.50
2018-03-04T06:58:05.034Z,92.40
2018-03-04T06:59:09.265Z,92.80
2018-03-04T07:00:14.344Z,92.10
2018-03-04T07:01:18.601Z,92.10
2018-03-04T07:02:23.604Z,92.20
2018-03-04T07:03:27.826Z,92.10
2018-03-04T07:04:32.022Z,92.20
2018-03-04T07:05:36.216Z,92.20
2018-03-04T07:06:40.435Z,92.30
2018-03-04T07:07:44.816Z,92.30
2018-03-04T07:08:49.037Z,92.30
2018-03-04T07:09:53.305Z,92.30
2018-03-04T07:10:58.304Z,92.50
2018-03-04T07:12:02.502Z,92.30
2018-03-04T07:13:06.735Z,92.30
2018-03-04T07:14:10.939Z,92.30
2018-03-04T07:15:15.233Z,92.30
2018-03-04T07:16:19.462Z,92.20
2018-03-04T07:17:23.672Z,92.20
2018-03-04T07:18:27.918Z,92.60
2018-03-04T07:19:32.880Z,92.30
2018-03-04T07:20:37.096Z,92.30
2018-03-04T07:21:41.489Z,92.20
2018-03-04T07:22:45.806Z,92.20
2018-03-04T07:23:50.198Z,92.20
2018-03-04T07:24:54.451Z,92.20
2018-03-04T07:25:58.660Z,92.20
2018-03-04T07:27:02.895Z,92.10
2018-03-04T07:28:07.111Z,92.20
2018-03-04T07:29:11.348Z,92.20
2018-03-04T07:30:15.634Z,92.20
2018-03-04T07:31:20.680Z,92.40
2018-03-04T07:32:24.917Z,92.20
2018-03-04T07:33:29.897Z,92.10
2018-03-04T07:34:34.151Z,92.10
2018-03-04T07:35:39.136Z,92.20
2018-03-04T07:36:43.393Z,92.20
2018-03-04T07:37:48.725Z,92.20
2018-03-04T07:38:53.242Z,92.20
2018-03-04T07:39:58.243Z,92.20
2018-03-04T07:41:02.442Z,92.10
2018-03-04T07:42:06.649Z,92.10
2018-03-04T07:43:10.899Z,92.00
2018-03-04T07:44:15.273Z,91.90
2018-03-04T07:45:19.608Z,91.90
2018-03-04T07:46:23.869Z,92.00
2018-03-04T07:47:28.079Z,92.00
2018-03-04T07:48:32.280Z,92.00
2018-03-04T07:49:37.242Z,92.00
2018-03-04T07:50:41.474Z,92.00
2018-03-04T07:51:46.660Z,91.90
2018-03-04T07:52:50.986Z,91.90
2018-03-04T07:53:55.228Z,91.80
2018-03-04T07:54:59.462Z,91.80
2018-03-04T07:56:03.652Z,91.80
2018-03-04T07:57:07.930Z,91.70
2018-03-04T07:58:12.151Z,91.70
2018-03-04T07:59:16.492Z,91.60
2018-03-04T08:00:20.689Z,91.40
2018-03-04T08:01:24.911Z,91.40
2018-03-04T08:02:29.135Z,91.30
2018-03-04T08:03:33.342Z,91.20
2018-03-04T08:04:37.515Z,91.30
2018-03-04T08:05:41.719Z,91.20
2018-03-04T08:06:45.997Z,91.00
2018-03-04T08:07:50.337Z,90.90
2018-03-04T08:08:54.554Z,90.80
2018-03-04T08:09:58.781Z,90.70
2018-03-04T08:11:02.986Z,90.70
2018-03-04T08:12:07.190Z,90.70
2018-03-04T08:13:11.435Z,90.80
2018-03-04T08:14:16.243Z,90.90
2018-03-04T08:15:20.776Z,91.30
2018-03-04T08:16:24.983Z,91.00
2018-03-04T08:17:29.168Z,90.60
2018-03-04T08:18:33.434Z,90.70
2018-03-04T08:19:37.639Z,90.60
2018-03-04T08:20:42.004Z,90.50
2018-03-04T08:21:46.288Z,90.20
2018-03-04T08:22:51.285Z,89.90
2018-03-04T08:23:57.013Z,89.90
2018-03-04T08:25:19.173Z,89.90
2018-03-04T08:26:41.941Z,89.80
2018-03-04T08:29:39.139Z,89.40
2018-03-04T08:30:43.654Z,89.40
2018-03-04T08:31:48.352Z,89.60
2018-03-04T08:32:53.333Z,89.80
2018-03-04T08:33:57.762Z,89.80
2018-03-04T08:35:01.985Z,89.80
2018-03-04T08:36:06.164Z,90.00
2018-03-04T08:37:10.675Z,89.80
2018-03-04T08:38:15.014Z,89.60
2018-03-04T08:39:20.063Z,89.50
2018-03-04T08:40:25.007Z,89.70
2018-03-04T08:41:29.950Z,89.20
2018-03-04T08:42:34.151Z,89.20
2018-03-04T08:43:39.134Z,89.10
2018-03-04T08:44:43.435Z,89.10
2018-03-04T08:45:47.651Z,89.20
2018-03-04T08:46:51.928Z,89.50
2018-03-04T08:47:56.117Z,89.40
2018-03-04T08:49:01.111Z,89.40
2018-03-04T08:50:05.343Z,89.40
2018-03-04T08:51:09.534Z,89.20
2018-03-04T08:52:14.178Z,89.00
2018-03-04T08:53:19.214Z,89.00
2018-03-04T08:54:24.252Z,88.90
2018-03-04T08:55:29.198Z,88.60
2018-03-04T08:56:33.393Z,88.50
2018-03-04T08:57:38.354Z,88.40
2018-03-04T08:58:42.953Z,88.40
2018-03-04T08:59:47.276Z,88.60
2018-03-04T09:00:51.609Z,88.50
2018-03-04T09:01:56.919Z,88.60
2018-03-04T09:03:01.104Z,88.60
2018-03-04T09:04:05.353Z,88.40
2018-03-04T09:05:10.382Z,88.40
2018-03-04T09:06:15.315Z,88.30
2018-03-04T09:07:19.529Z,87.80
2018-03-04T09:08:23.720Z,87.90
2018-03-04T09:09:27.950Z,87.30
2018-03-04T09:10:32.151Z,86.50
2018-03-04T09:11:36.375Z,86.60
2018-03-04T09:12:40.575Z,86.80
2018-03-04T09:13:44.775Z,86.90
2018-03-04T09:14:48.996Z,86.80
2018-03-04T09:15:53.247Z,86.60
2018-03-04T09:16:57.456Z,87.10
2018-03-04T09:18:01.653Z,86.70
2018-03-04T09:19:05.922Z,86.90
2018-03-04T09:20:10.130Z,87.10
2018-03-04T09:21:15.390Z,87.50
2018-03-04T09:22:19.623Z,87.40
2018-03-04T09:23:23.829Z,87.50
2018-03-04T09:24:28.055Z,87.30
2018-03-04T09:25:32.304Z,87.50
2018-03-04T09:26:36.509Z,87.70
2018-03-04T09:27:41.543Z,87.90
2018-03-04T09:28:45.809Z,87.80
2018-03-04T09:29:50.090Z,87.60
2018-03-04T09:30:54.297Z,87.70
2018-03-04T09:31:58.504Z,87.50
2018-03-04T09:33:02.733Z,87.60
2018-03-04T09:34:06.950Z,87.60
2018-03-04T09:35:11.207Z,87.40
2018-03-04T09:36:15.709Z,87.40
2018-03-04T09:37:20.887Z,87.20
2018-03-04T09:38:25.208Z,87.20
2018-03-04T09:39:31.353Z,87.50
2018-03-04T09:40:35.727Z,87.30
2018-03-04T09:41:39.927Z,87.40
2018-03-04T09:42:44.230Z,87.40
2018-03-04T09:43:48.500Z,87.20
2018-03-04T09:44:52.763Z,87.10
2018-03-04T09:45:56.977Z,87.00
2018-03-04T09:47:01.187Z,86.70
2018-03-04T09:48:05.417Z,86.90
2018-03-04T09:49:09.647Z,86.40
2018-03-04T09:50:14.671Z,86.50
2018-03-04T09:51:18.978Z,86.40
2018-03-04T09:52:24.007Z,86.40
2018-03-04T09:53:29.033Z,86.40
2018-03-04T09:54:33.319Z,86.40
2018-03-04T09:55:37.512Z,86.50
2018-03-04T09:56:41.728Z,86.60
2018-03-04T09:57:46.330Z,86.70
2018-03-04T09:58:50.568Z,87.50
2018-03-04T09:59:54.897Z,86.80
2018-03-04T10:00:59.092Z,86.90
2018-03-04T10:02:03.276Z,87.00
2018-03-04T10:03:07.455Z,87.20
2018-03-04T10:04:12.440Z,87.10
2018-03-04T10:05:16.833Z,87.10
2018-03-04T10:06:21.078Z,86.90
2018-03-04T10:07:25.285Z,86.80
2018-03-04T10:08:29.483Z,86.70
2018-03-04T10:09:33.764Z,86.70
2018-03-04T10:10:38.077Z,86.60
2018-03-04T10:11:42.608Z,86.50
2018-03-04T10:12:46.904Z,86.50
2018-03-04T10:13:51.130Z,86.10
2018-03-04T10:14:55.368Z,86.30
2018-03-04T10:15:59.606Z,86.50
2018-03-04T10:17:03.767Z,86.60
2018-03-04T10:18:07.965Z,86.70
2018-03-04T10:19:12.247Z,86.50
2018-03-04T10:20:17.279Z,86.00
2018-03-04T10:21:22.547Z,86.10
2018-03-04T10:22:26.723Z,86.00
2018-03-04T10:23:31.665Z,86.30
2018-03-04T10:24:36.632Z,86.50
2018-03-04T10:25:40.823Z,86.40
2018-03-04T10:26:45.098Z,86.40
2018-03-04T10:27:49.307Z,86.20
2018-03-04T10:28:54.287Z,86.20
2018-03-04T10:29:58.483Z,86.10
2018-03-04T10:31:02.706Z,86.30
2018-03-04T10:32:06.967Z,86.50
2018-03-04T10:33:11.159Z,86.20
2018-03-04T10:34:16.877Z,86.40
2018-03-04T10:35:21.085Z,86.30
2018-03-04T10:36:25.263Z,86.40
2018-03-04T10:37:30.261Z,86.40
2018-03-04T10:38:34.446Z,86.50
2018-03-04T10:39:38.690Z,86.10
2018-03-04T10:40:42.939Z,85.90
2018-03-04T10:41:47.199Z,85.90
2018-03-04T10:42:52.946Z,85.30
2018-03-04T10:43:57.129Z,85.20
2018-03-04T10:45:01.335Z,84.50
2018-03-04T10:46:05.546Z,84.30
2018-03-04T10:47:09.711Z,84.30
2018-03-04T10:48:13.998Z,84.40
2018-03-04T10:49:18.240Z,84.00
2018-03-04T10:50:23.343Z,83.10
2018-03-04T10:51:29.044Z,83.10
2018-03-04T10:52:33.237Z,83.10
2018-03-04T10:53:38.229Z,83.50
2018-03-04T10:54:42.452Z,83.50
2018-03-04T10:55:47.447Z,83.60
2018-03-04T10:56:51.677Z,83.60
2018-03-04T10:57:56.678Z,83.80
2018-03-04T10:59:01.037Z,83.60
2018-03-04T11:00:06.059Z,84.60
2018-03-04T11:01:10.243Z,84.60
2018-03-04T11:02:19.934Z,84.70
2018-03-04T11:03:24.875Z,84.70
2018-03-04T11:04:29.866Z,84.80
2018-03-04T11:05:34.125Z,84.70
2018-03-04T11:06:38.381Z,85.00
2018-03-04T11:07:42.767Z,84.80
2018-03-04T11:08:47.040Z,84.90
2018-03-04T11:09:52.100Z,84.60
2018-03-04T11:11:57.675Z,84.70
2018-03-04T11:13:01.882Z,84.80
2018-03-04T11:14:06.085Z,85.10
2018-03-04T11:15:10.315Z,85.00
2018-03-04T11:16:14.540Z,85.10
2018-03-04T11:17:18.835Z,84.80
2018-03-04T11:18:23.201Z,84.70
2018-03-04T11:19:28.166Z,84.30
2018-03-04T11:20:32.398Z,84.10
2018-03-04T11:21:36.599Z,84.10
2018-03-04T11:22:40.784Z,83.70
2018-03-04T11:23:44.976Z,83.60
2018-03-04T11:24:49.996Z,83.60
2018-03-04T11:25:54.181Z,83.60
2018-03-04T11:26:58.406Z,83.50
2018-03-04T11:28:02.618Z,83.50
2018-03-04T11:29:06.806Z,82.90
2018-03-04T11:30:11.145Z,82.30
2018-03-04T11:31:16.135Z,82.20
2018-03-04T11:32:20.331Z,82.50
2018-03-04T11:33:24.533Z,82.60
2018-03-04T11:34:28.747Z,82.60
2018-03-04T11:35:32.930Z,82.50
2018-03-04T11:36:37.931Z,81.40
2018-03-04T11:37:42.133Z,81.40
2018-03-04T11:38:47.880Z,80.90
2018-03-04T11:39:52.895Z,80.80
2018-03-04T11:40:57.064Z,80.80
2018-03-04T11:42:01.300Z,81.20
2018-03-04T11:43:05.467Z,81.00
2018-03-04T11:44:10.590Z,79.50
2018-03-04T11:45:15.656Z,79.20
2018-03-04T11:46:19.911Z,79.20
2018-03-04T11:47:24.939Z,79.50
2018-03-04T11:48:29.154Z,79.40
2018-03-04T11:49:33.343Z,78.40
2018-03-04T11:50:37.507Z,78.10
2018-03-04T11:51:42.495Z,77.90
2018-03-04T11:52:46.958Z,77.80
2018-03-04T11:53:51.990Z,78.00
2018-03-04T11:54:56.198Z,78.00
2018-03-04T11:56:01.157Z,78.60
2018-03-04T11:57:05.346Z,78.50
2018-03-04T11:58:09.539Z,79.50
2018-03-04T11:59:14.553Z,79.50
2018-03-04T12:00:18.738Z,79.40
2018-03-04T12:01:22.952Z,79.50
2018-03-04T12:02:27.492Z,79.50
2018-03-04T12:03:31.742Z,80.30
2018-03-04T12:04:36.112Z,79.30
2018-03-04T12:05:40.322Z,79.40
2018-03-04T12:06:44.608Z,79.40
2018-03-04T12:07:48.846Z,79.70
2018-03-04T12:08:53.073Z,80.00
2018-03-04T12:09:58.071Z,80.20
2018-03-04T12:11:02.240Z,80.20
2018-03-04T12:12:06.407Z,80.40
2018-03-04T12:13:10.657Z,80.60
2018-03-04T12:14:15.211Z,80.30
2018-03-04T12:15:19.491Z,80.40
2018-03-04T12:16:24.469Z,80.80
2018-03-04T12:17:28.655Z,80.40
2018-03-04T12:18:32.840Z,80.60
2018-03-04T12:19:37.045Z,80.80
2018-03-04T12:20:41.279Z,80.30
2018-03-04T12:21:46.103Z,80.30
2018-03-04T12:22:50.359Z,80.00
2018-03-04T12:23:55.475Z,79.80
2018-03-04T12:24:59.671Z,79.70
2018-03-04T12:26:03.937Z,79.40
2018-03-04T12:27:08.906Z,79.20
2018-03-04T12:28:13.131Z,79.20
2018-03-04T12:29:17.490Z,79.30
2018-03-04T12:30:22.499Z,80.30
2018-03-04T12:31:27.539Z,80.90
2018-03-04T12:32:32.535Z,81.80
2018-03-04T12:33:36.796Z,81.00
2018-03-04T12:34:41.061Z,81.00
2018-03-04T12:35:45.303Z,81.00
2018-03-04T12:36:50.329Z,80.50
2018-03-04T12:37:55.312Z,80.70
2018-03-04T12:38:59.511Z,80.60
2018-03-04T12:40:03.738Z,79.40
2018-03-04T12:41:07.937Z,79.00
2018-03-04T12:42:12.255Z,79.00
2018-03-04T12:43:16.749Z,78.50
2018-03-04T12:44:21.124Z,78.40
2018-03-04T12:45:26.861Z,78.30
2018-03-04T12:46:31.070Z,78.30
2018-03-04T12:47:35.247Z,77.80
2018-03-04T12:48:39.498Z,77.60
2018-03-04T12:49:43.696Z,77.50
2018-03-04T12:50:47.932Z,77.80
2018-03-04T12:51:52.918Z,77.60
2018-03-04T12:52:57.079Z,77.60
2018-03-04T12:54:01.279Z,77.90
2018-03-04T12:55:05.525Z,77.70
2018-03-04T12:56:09.739Z,77.50
2018-03-04T12:57:13.975Z,78.00
2018-03-04T12:58:18.156Z,78.10
2018-03-04T12:59:22.334Z,78.60
2018-03-04T13:00:26.523Z,78.50
2018-03-04T13:01:30.743Z,78.10
2018-03-04T13:02:35.699Z,78.90
2018-03-04T13:03:40.682Z,78.40
2018-03-04T13:04:44.908Z,78.30
2018-03-04T13:05:49.094Z,78.30
2018-03-04T13:06:53.359Z,78.60
2018-03-04T13:07:57.541Z,78.70
2018-03-04T13:09:01.818Z,78.70
2018-03-04T13:10:06.058Z,78.60
2018-03-04T13:11:10.298Z,78.70
2018-03-04T13:12:14.470Z,78.60
2018-03-04T13:13:18.702Z,78.60
2018-03-04T13:14:22.987Z,78.40
2018-03-04T13:15:27.237Z,79.10
2018-03-04T13:16:31.423Z,79.00
2018-03-04T13:17:37.175Z,79.60
2018-03-04T13:18:42.928Z,79.40
2018-03-04T13:19:48.670Z,78.90
2018-03-04T13:20:52.866Z,78.90
2018-03-04T13:21:57.094Z,78.60
2018-03-04T13:23:01.335Z,78.50
2018-03-04T13:24:06.307Z,78.60
2018-03-04T13:25:10.511Z,78.50
2018-03-04T13:26:14.687Z,79.00
2018-03-04T13:27:19.714Z,79.60
2018-03-04T13:28:23.908Z,79.40
2018-03-04T13:29:28.071Z,79.60
2018-03-04T13:30:32.285Z,79.80
2018-03-04T13:31:36.469Z,79.50
2018-03-04T13:32:40.694Z,79.10
2018-03-04T13:33:44.887Z,78.70
2018-03-04T13:34:49.079Z,78.80
2018-03-04T13:35:54.070Z,79.00
2018-03-04T13:36:58.242Z,78.90
2018-03-04T13:38:02.554Z,79.00
2018-03-04T13:39:06.727Z,78.90
2018-03-04T13:40:10.922Z,78.90
2018-03-04T13:41:15.142Z,79.00
2018-03-04T13:42:19.311Z,79.90
2018-03-04T13:43:23.519Z,79.90
2018-03-04T13:44:27.721Z,80.00
2018-03-04T13:45:31.910Z,80.50
2018-03-04T13:46:37.023Z,81.00
2018-03-04T13:47:42.857Z,81.20
2018-03-04T13:48:48.061Z,81.10
2018-03-04T13:49:52.304Z,81.30
2018-03-04T13:50:56.474Z,81.20
2018-03-04T13:52:00.697Z,81.10
2018-03-04T13:53:04.872Z,81.30